LLIB

Ben Ya'akov Airport

Rosh Pina, Israel
TAF LLIB 201119Z 2012/2112 31012KT 9999 FEW035 BECMG 2016/2018 VRB03KT 8000 SCT018 PROB40 2100/2105 5000 BR BKN013 BECMG 2106/2108 20008KT 9999 FEW035 TX34/2012Z TN21/2103Z
Issued Valid From Valid To
Jul-20 @ 11:19 UTC
(3 hours ago)
Jul-20 @ 12:00 UTC
(2 hours ago)
Jul-21 @ 12:00 UTC
(in 22 hours)
Jul-20 @ 12:00 to Jul-20 @ 16:00
TAF LLIB 201119Z 2012/2112 31012KT 9999 FEW035
Wind Visibility Clouds
310° at 12 knots 10,000+ meters
  • Few at 3,500' AGL
Becoming Jul-20 @ 16:00 to Jul-21 @ 06:00
BECMG 2016/2018 VRB03KT 8000 SCT018
Wind Visibility Clouds
Variable at 3 knots 7,998 meters
  • Scattered at 1,800' AGL
Probable  (Probability 40%) Jul-21 @ 00:00 to Jul-21 @ 05:00
PROB40 2100/2105 5000 BR BKN013
Visibility Clouds Conditions
5,005 meters
  • Broken at 1,300' AGL
  • Mist
Becoming Jul-21 @ 06:00 to Jul-21 @ 12:00
BECMG 2106/2108 20008KT 9999 FEW035 TX34/2012Z TN21/2103Z
Wind Visibility Clouds
200° at 8 knots 10,000+ meters
  • Few at 3,500' AGL
TAF LLIB 201119Z 2012/2112 31012KT 9999 FEW035 BECMG 2016/2018 VRB03KT 8000 SCT018 PROB40 2100/2105 5000 BR BKN013 BECMG 2106/2108 20008KT 9999 FEW035 TX34/2012Z TN21/2103Z
Issued Jul-20 @ 11:19 UTC
(3 hours ago)
Valid From Jul-20 @ 12:00 UTC
(2 hours ago)
Valid To Jul-21 @ 12:00 UTC
(in 22 hours)
Jul-20 @ 12:00 - Jul-20 @ 16:00
Wind Visibility
310° at 12 knots 10,000+ meters
Clouds
  • Few at 3,500' AGL
Becoming Jul-20 @ 16:00 - Jul-21 @ 06:00
Wind Visibility
Variable at 3 knots 7,998 meters
Clouds
  • Scattered at 1,800' AGL
Probability 40% Probable Jul-21 @ 00:00 - Jul-21 @ 05:00
Clouds
  • Broken at 1,300' AGL
Conditions
  • Mist
Becoming Jul-21 @ 06:00 - Jul-21 @ 12:00
Wind Visibility
200° at 8 knots 10,000+ meters
Clouds
  • Few at 3,500' AGL